Time;durP1;ratioP1;P1;durP2;ratioP2;P2;SDS_P1;SDS_P2;PMS_P1;PMS_P2;Temp;Humidity;BMP_temperature;BMP_pressure;BME280_temperature;BME280_humidity;BME280_pressure;Samples;Min_cycle;Max_cycle;Signal;HPM_P1;HPM_P2
2024/03/22 00:01:48;;;;;;;39.55;21.67;;;;;;;15.06;57.85;102072.25;4915589;28;118250;-84
2024/03/22 00:04:14;;;;;;;45.33;22.70;;;;;;;15.08;57.66;102065.03;4895139;28;124083;-83
2024/03/22 00:06:42;;;;;;;38.67;21.15;;;;;;;15.08;57.63;102065.03;4912864;28;124628;-85
2024/03/22 00:09:09;;;;;;;45.20;24.13;;;;;;;15.11;58.02;102059.56;4915365;28;120392;-83
2024/03/22 00:11:37;;;;;;;46.67;24.67;;;;;;;15.11;57.88;102060.44;4936418;28;118804;-83
2024/03/22 00:14:03;;;;;;;50.38;25.25;;;;;;;15.13;57.80;102057.69;4911777;28;124807;-85
2024/03/22 00:16:29;;;;;;;48.80;26.73;;;;;;;15.14;58.07;102054.09;4927119;28;121943;-83
2024/03/22 00:18:56;;;;;;;50.83;26.33;;;;;;;15.14;58.23;102049.63;4896521;28;119194;-83
2024/03/22 00:21:23;;;;;;;48.50;26.00;;;;;;;15.15;58.15;102050.50;4900008;28;120804;-84
2024/03/22 00:23:49;;;;;;;50.63;26.25;;;;;;;15.15;58.01;102051.34;4897350;28;124891;-84
2024/03/22 00:26:15;;;;;;;52.08;26.90;;;;;;;15.18;58.35;102050.34;4910169;28;124285;-83
2024/03/22 00:28:42;;;;;;;47.78;25.88;;;;;;;15.20;58.44;102048.50;4910790;28;118635;-84
2024/03/22 00:31:09;;;;;;;52.75;26.88;;;;;;;15.23;58.46;102047.47;4912908;28;121615;-84
2024/03/22 00:33:35;;;;;;;52.40;27.30;;;;;;;15.25;58.34;102046.47;4905398;28;125019;-83
2024/03/22 00:36:01;;;;;;;55.30;26.33;;;;;;;15.27;58.63;102039.25;4912190;28;125612;-83
2024/03/22 00:38:28;;;;;;;50.55;27.10;;;;;;;15.29;58.38;102032.03;4895052;28;120702;-83
2024/03/22 00:40:54;;;;;;;51.78;27.20;;;;;;;15.31;58.52;102024.84;4890555;28;120280;-85
2024/03/22 00:43:20;;;;;;;50.00;26.23;;;;;;;15.34;58.60;102014.00;4899453;28;125455;-84
2024/03/22 00:45:47;;;;;;;51.75;27.20;;;;;;;15.36;58.68;102012.13;4892811;28;125134;-83
2024/03/22 00:48:14;;;;;;;53.17;26.88;;;;;;;15.40;58.66;102012.00;4901437;28;120205;-84
2024/03/22 00:50:40;;;;;;;48.63;26.73;;;;;;;15.40;58.65;102006.66;4895241;28;118159;-84
2024/03/22 00:53:07;;;;;;;51.45;25.88;;;;;;;15.43;58.69;101995.84;4895883;28;125760;-84
2024/03/22 00:55:34;;;;;;;50.22;27.30;;;;;;;15.44;58.73;101987.75;4910392;28;123992;-84
2024/03/22 00:58:00;;;;;;;48.33;25.98;;;;;;;15.46;58.76;101987.69;4910745;28;119897;-83
2024/03/22 01:00:27;;;;;;;51.50;26.27;;;;;;;15.49;58.89;101985.72;4912102;28;119246;-83
2024/03/22 01:02:53;;;;;;;51.55;28.10;;;;;;;15.50;58.94;101971.47;4911122;28;123727;-84
2024/03/22 01:05:19;;;;;;;46.28;25.00;;;;;;;15.54;58.83;101964.16;4909118;28;122650;-83
2024/03/22 01:07:46;;;;;;;49.42;26.25;;;;;;;15.56;58.76;101959.63;4915287;28;119617;-86
2024/03/22 01:10:12;;;;;;;49.35;26.75;;;;;;;15.57;58.72;101950.66;4924581;28;117935;-84
2024/03/22 01:12:39;;;;;;;45.67;25.10;;;;;;;15.58;58.87;101947.06;4896153;28;124979;-84
2024/03/22 01:15:07;;;;;;;53.25;26.65;;;;;;;15.57;58.92;101940.81;4894745;28;126102;-83
2024/03/22 01:17:33;;;;;;;47.05;26.05;;;;;;;15.60;58.81;101945.16;4904052;28;120259;-83
2024/03/22 01:20:00;;;;;;;46.20;25.15;;;;;;;15.59;58.80;101932.75;4908564;28;121004;-83
2024/03/22 01:22:26;;;;;;;48.20;26.00;;;;;;;15.60;59.14;101931.81;4893599;28;125111;-84
2024/03/22 01:24:53;;;;;;;47.63;25.23;;;;;;;15.60;58.85;101931.81;4906374;28;124504;-83
2024/03/22 01:27:19;;;;;;;49.05;25.13;;;;;;;15.60;58.90;101939.84;4914605;28;120666;-83
2024/03/22 01:29:47;;;;;;;44.88;26.33;;;;;;;15.62;58.85;101947.78;4911643;28;120482;-83
2024/03/22 01:32:13;;;;;;;45.17;25.05;;;;;;;15.61;58.82;101941.53;4927357;28;124146;-84
2024/03/22 01:34:40;;;;;;;43.08;24.83;;;;;;;15.61;59.09;101941.53;4911061;28;125133;-83
2024/03/22 01:37:06;;;;;;;47.70;25.95;;;;;;;15.63;59.08;101939.66;4897997;28;119257;-83
2024/03/22 01:39:33;;;;;;;52.03;26.65;;;;;;;15.63;58.89;101934.31;4913531;28;120469;-84
2024/03/22 01:41:59;;;;;;;49.13;25.40;;;;;;;15.65;58.86;101927.13;4916865;28;122935;-86
2024/03/22 01:44:29;;;;;;;45.33;24.70;;;;;;;15.62;59.06;101916.59;4897884;28;124416;-83
2024/03/22 01:46:56;;;;;;;44.47;25.02;;;;;;;15.63;58.97;101912.94;4912982;28;118981;-83
2024/03/22 01:49:25;;;;;;;45.05;24.58;;;;;;;15.63;59.09;101910.28;4914908;28;119312;-83
2024/03/22 01:51:52;;;;;;;44.10;24.42;;;;;;;15.63;59.16;101902.28;4914444;28;124743;-83
2024/03/22 01:54:20;;;;;;;46.08;25.23;;;;;;;15.62;59.15;101911.25;4901987;28;124905;-83
2024/03/22 01:56:47;;;;;;;47.40;25.10;;;;;;;15.63;59.15;101904.09;4915354;28;121087;-83
2024/03/22 01:59:15;;;;;;;47.97;25.60;;;;;;;15.63;59.22;101902.28;4909840;28;119624;-86
2024/03/22 02:01:42;;;;;;;50.30;25.73;;;;;;;15.64;59.07;101904.00;4911577;28;125020;-83
2024/03/22 02:04:08;;;;;;;49.45;26.48;;;;;;;15.65;59.28;101911.09;4915312;28;124319;-84
2024/03/22 02:06:34;;;;;;;49.38;27.00;;;;;;;15.66;59.12;101923.50;4898974;28;120158;-83
2024/03/22 02:09:01;;;;;;;52.45;27.48;;;;;;;15.64;59.20;101914.69;4897838;28;119976;-82
2024/03/22 02:11:28;;;;;;;49.80;28.05;;;;;;;15.64;59.23;101916.50;4903482;28;123486;-85
2024/03/22 02:13:54;;;;;;;54.15;27.73;;;;;;;15.65;59.14;101911.09;4917037;28;122658;-85
2024/03/22 02:16:21;;;;;;;48.17;26.77;;;;;;;15.63;59.33;101912.94;4911109;28;121154;-84
2024/03/22 02:18:47;;;;;;;52.75;28.63;;;;;;;15.63;59.39;101907.63;4895921;28;119421;-83
2024/03/22 02:21:13;;;;;;;43.53;22.90;;;;;;;15.62;59.27;101900.56;4913913;28;125017;-83
2024/03/22 02:23:40;;;;;;;49.13;27.20;;;;;;;15.62;59.11;101900.56;4914049;28;125642;-83
2024/03/22 02:26:07;;;;;;;50.28;27.58;;;;;;;15.62;59.27;101889.88;4919543;28;118485;-83
2024/03/22 02:28:35;;;;;;;52.42;28.40;;;;;;;15.62;59.29;101895.22;4915625;28;120668;-83
2024/03/22 02:31:04;;;;;;;50.58;28.80;;;;;;;15.60;59.43;101891.75;4910491;28;123919;-83
2024/03/22 02:33:31;;;;;;;46.60;27.05;;;;;;;15.60;59.21;101891.75;4914779;28;122807;-84
2024/03/22 02:35:58;;;;;;;46.90;26.25;;;;;;;15.60;59.35;101885.56;4929805;28;118590;-84
2024/03/22 02:38:25;;;;;;;46.30;27.33;;;;;;;15.59;59.13;101884.69;4905240;28;119899;-83
2024/03/22 02:40:52;;;;;;;46.33;24.90;;;;;;;15.59;59.36;101882.00;4914606;28;123091;-84
2024/03/22 02:43:20;;;;;;;49.35;27.75;;;;;;;15.59;59.41;101879.34;4926645;28;123800;-85
2024/03/22 02:45:48;;;;;;;46.83;26.67;;;;;;;15.59;59.36;101874.00;4898606;28;119627;-84
2024/03/22 02:48:14;;;;;;;45.53;24.65;;;;;;;15.58;59.43;101866.94;4916633;28;119854;-83
2024/03/22 02:50:41;;;;;;;49.30;27.25;;;;;;;15.58;59.38;101856.25;4898410;28;125565;-83
2024/03/22 02:53:07;;;;;;;46.80;27.33;;;;;;;15.59;59.42;101852.63;4914208;28;123977;-83
2024/03/22 02:55:40;;;;;;;45.47;26.55;;;;;;;15.60;59.45;101853.53;4905702;28;120601;-82
2024/03/22 02:58:07;;;;;;;42.97;24.55;;;;;;;15.61;59.40;101853.41;4911904;28;120514;-83
2024/03/22 03:00:40;;;;;;;42.78;25.83;;;;;;;15.60;59.48;101842.84;4909890;28;125363;-84
2024/03/22 03:03:07;;;;;;;44.35;25.60;;;;;;;15.62;59.46;101841.81;4912638;28;124662;-84
2024/03/22 03:05:34;;;;;;;45.80;25.75;;;;;;;15.61;59.38;101840.06;4914035;28;121110;-84
2024/03/22 03:08:01;;;;;;;40.88;25.10;;;;;;;15.61;59.38;101834.72;4897812;28;120718;-87
2024/03/22 03:10:27;;;;;;;40.92;24.45;;;;;;;15.60;59.29;101830.34;4910802;28;125143;-83
2024/03/22 03:12:56;;;;;;;41.67;24.80;;;;;;;15.61;59.25;101824.03;4897613;28;124849;-84
2024/03/22 03:15:23;;;;;;;41.97;25.48;;;;;;;15.62;59.37;101831.13;4926189;28;120705;-84
2024/03/22 03:17:51;;;;;;;41.13;24.52;;;;;;;15.63;59.37;101826.66;4903655;28;120138;-82
2024/03/22 03:20:17;;;;;;;42.10;24.25;;;;;;;15.61;59.49;101818.69;4898223;28;125250;-82
2024/03/22 03:22:44;;;;;;;39.47;23.23;;;;;;;15.61;59.33;101816.03;4891475;28;124971;-82
2024/03/22 03:25:10;;;;;;;45.58;24.27;;;;;;;15.59;59.32;101801.91;4914683;28;120502;-84
2024/03/22 03:27:36;;;;;;;39.33;24.98;;;;;;;15.58;59.45;101802.84;4927822;28;119081;-83
2024/03/22 03:30:03;;;;;;;41.80;23.77;;;;;;;15.57;59.41;101798.44;4914390;28;124285;-84
2024/03/22 03:32:30;;;;;;;42.05;24.88;;;;;;;15.56;59.20;101789.56;4912485;28;125703;-83
2024/03/22 03:34:56;;;;;;;43.33;24.35;;;;;;;15.54;59.37;101785.25;4928218;28;119279;-83
2024/03/22 03:37:22;;;;;;;38.00;22.80;;;;;;;15.53;59.23;101786.19;4914671;28;119586;-84
2024/03/22 03:39:48;;;;;;;39.03;23.52;;;;;;;15.52;59.05;101781.78;4914985;28;125747;-85
2024/03/22 03:42:15;;;;;;;41.08;24.48;;;;;;;15.50;59.33;101783.66;4920284;28;124722;-83
2024/03/22 03:44:41;;;;;;;40.65;24.10;;;;;;;15.49;59.35;101781.97;4897451;28;119191;-84
2024/03/22 03:47:08;;;;;;;38.70;23.55;;;;;;;15.48;59.44;101785.56;4897951;28;119952;-83
2024/03/22 03:49:35;;;;;;;43.50;24.45;;;;;;;15.46;59.35;101782.97;4898204;28;123932;-85
2024/03/22 03:52:01;;;;;;;36.92;22.40;;;;;;;15.45;59.22;101781.25;4914438;28;123917;-83
2024/03/22 03:54:28;;;;;;;40.00;23.45;;;;;;;15.43;59.21;101779.59;4930838;28;120734;-82
2024/03/22 03:56:54;;;;;;;38.17;23.13;;;;;;;15.42;59.42;101769.84;4897661;28;120983;-83
2024/03/22 03:59:20;;;;;;;39.88;23.33;;;;;;;15.40;59.22;101766.41;4913911;28;124534;-83
2024/03/22 04:01:47;;;;;;;39.65;23.80;;;;;;;15.38;59.30;101764.66;4915844;28;124604;-84
2024/03/22 04:04:14;;;;;;;38.85;23.40;;;;;;;15.38;59.20;101759.31;4899165;28;120360;-83
2024/03/22 04:06:40;;;;;;;43.00;24.20;;;;;;;15.36;59.36;101755.88;4916157;28;121124;-83
2024/03/22 04:09:07;;;;;;;39.65;23.02;;;;;;;15.35;59.34;101759.50;4931264;28;124926;-83
2024/03/22 04:11:33;;;;;;;42.10;23.83;;;;;;;15.34;59.46;101768.44;4900731;28;125166;-84
2024/03/22 04:13:59;;;;;;;39.13;22.85;;;;;;;15.33;59.32;101761.38;4915658;28;118792;-84
2024/03/22 04:16:27;;;;;;;37.38;23.13;;;;;;;15.31;59.42;101757.94;4929106;28;116944;-84
2024/03/22 04:18:53;;;;;;;37.50;22.92;;;;;;;15.29;59.42;101759.78;4918249;28;124108;-84
2024/03/22 04:21:19;;;;;;;36.20;23.13;;;;;;;15.28;59.59;101752.72;4934078;28;123540;-85
2024/03/22 04:23:46;;;;;;;37.33;22.70;;;;;;;15.27;59.51;101748.31;4915643;28;120402;-84
2024/03/22 04:26:12;;;;;;;37.85;22.67;;;;;;;15.27;59.58;101751.00;4919462;28;118251;-83
2024/03/22 04:28:38;;;;;;;38.92;23.30;;;;;;;15.26;59.40;101749.28;4907044;28;125292;-83
2024/03/22 04:31:08;;;;;;;36.95;23.08;;;;;;;15.24;59.51;101743.16;4915090;28;123249;-83
2024/03/22 04:33:36;;;;;;;34.80;22.13;;;;;;;15.24;59.53;101740.50;4909995;28;118011;-84
2024/03/22 04:36:03;;;;;;;37.17;23.17;;;;;;;15.24;59.53;101745.81;4915478;28;119065;-87
2024/03/22 04:38:30;;;;;;;36.35;21.23;;;;;;;15.25;59.53;101752.03;4907365;28;123687;-83
2024/03/22 04:40:57;;;;;;;34.00;22.13;;;;;;;15.24;59.37;101751.16;4913465;28;125892;-83
2024/03/22 04:43:24;;;;;;;38.08;22.48;;;;;;;15.23;59.54;101749.41;4910382;28;120978;-84
2024/03/22 04:45:51;;;;;;;34.75;21.52;;;;;;;15.22;59.57;101753.06;4896270;28;119108;-83
2024/03/22 04:48:20;;;;;;;36.05;22.13;;;;;;;15.23;59.59;101754.75;4915843;28;125723;-84
2024/03/22 04:50:49;;;;;;;36.15;22.23;;;;;;;15.23;59.42;101749.41;4899591;28;124985;-83
2024/03/22 04:53:16;;;;;;;38.53;22.50;;;;;;;15.24;59.47;101756.50;4909522;28;119097;-86
2024/03/22 04:55:46;;;;;;;32.53;21.55;;;;;;;15.23;59.65;101749.41;4910399;28;119264;-83
2024/03/22 04:58:14;;;;;;;36.70;22.40;;;;;;;15.22;59.50;101742.38;4933415;28;125175;-84
2024/03/22 05:00:41;;;;;;;39.17;22.73;;;;;;;15.21;59.68;101735.28;4925773;28;125326;-85
2024/03/22 05:03:08;;;;;;;37.30;21.95;;;;;;;15.19;59.29;101734.50;4911158;28;117532;-86
2024/03/22 05:05:35;;;;;;;32.72;17.25;;;;;;;15.18;59.55;101731.00;4894488;28;120438;-84
2024/03/22 05:08:01;;;;;;;32.20;16.55;;;;;;;15.17;59.50;101723.06;4898542;28;124857;-84
2024/03/22 05:10:29;;;;;;;32.20;17.88;;;;;;;15.17;59.39;101728.38;4906069;28;123917;-85
2024/03/22 05:12:56;;;;;;;32.60;18.15;;;;;;;15.16;59.48;101721.31;4896368;28;119898;-81
2024/03/22 05:15:22;;;;;;;31.05;17.27;;;;;;;15.16;59.55;101726.66;4931536;28;120130;-81
2024/03/22 05:17:49;;;;;;;32.83;17.48;;;;;;;15.16;59.55;101726.66;4915747;28;123071;-82
2024/03/22 05:20:16;;;;;;;34.17;17.77;;;;;;;15.15;59.30;101724.94;4914988;28;124167;-82
2024/03/22 05:22:43;;;;;;;31.48;17.05;;;;;;;15.15;59.53;101725.78;4897981;28;117157;-82
2024/03/22 05:25:09;;;;;;;32.58;16.92;;;;;;;15.14;59.30;101723.19;4902554;28;118504;-82
2024/03/22 05:27:36;;;;;;;28.20;16.15;;;;;;;15.11;59.31;101718.03;4912777;28;125560;-82
2024/03/22 05:30:06;;;;;;;31.13;15.80;;;;;;;15.10;59.34;101721.63;4891576;28;123233;-80
2024/03/22 05:32:32;;;;;;;27.85;15.98;;;;;;;15.09;59.45;101714.59;4908566;28;120787;-82
2024/03/22 05:34:58;;;;;;;27.65;15.65;;;;;;;15.06;59.44;101712.06;4929158;28;120795;-82
2024/03/22 05:37:25;;;;;;;32.10;16.13;;;;;;;15.05;59.37;101719.19;4928537;28;125370;-83
2024/03/22 05:39:51;;;;;;;27.15;13.15;;;;;;;15.04;59.36;101711.28;4927212;28;121887;-81
2024/03/22 05:42:17;;;;;;;31.88;13.95;;;;;;;15.03;59.24;101714.88;4914479;28;118826;-81
2024/03/22 05:44:47;;;;;;;26.88;13.00;;;;;;;15.01;59.18;101711.41;4936064;28;118481;-83
2024/03/22 05:47:14;;;;;;;25.88;12.73;;;;;;;15.01;59.33;101711.41;4924524;28;126007;-82
2024/03/22 05:49:40;;;;;;;24.42;13.30;;;;;;;14.99;59.25;101707.03;4936390;28;124453;-79
2024/03/22 05:52:06;;;;;;;28.50;13.40;;;;;;;14.98;59.17;101713.28;4919700;28;119497;-84
2024/03/22 05:54:33;;;;;;;26.58;12.75;;;;;;;14.97;59.26;101716.91;4936705;28;120020;-82
2024/03/22 05:57:00;;;;;;;26.48;13.10;;;;;;;14.97;59.20;101716.91;4928376;28;126385;-82
2024/03/22 05:59:27;;;;;;;24.45;12.73;;;;;;;14.97;59.20;101711.59;4910738;28;123616;-83
2024/03/22 06:01:53;;;;;;;25.08;13.25;;;;;;;14.98;59.22;101712.44;4941302;28;119458;-81
2024/03/22 06:04:20;;;;;;;28.60;13.20;;;;;;;14.98;59.13;101713.28;4927379;28;119007;-83
2024/03/22 06:06:46;;;;;;;31.00;13.85;;;;;;;14.97;59.07;101711.59;4932682;28;123837;-82
2024/03/22 06:09:13;;;;;;;26.73;12.45;;;;;;;14.98;59.13;101710.63;4917831;28;122430;-82
2024/03/22 06:11:43;;;;;;;26.50;13.50;;;;;;;14.98;59.12;101713.28;4914439;28;118140;-79
2024/03/22 06:14:10;;;;;;;26.73;12.98;;;;;;;14.99;59.05;101720.38;4908770;28;118178;-80
2024/03/22 06:16:36;;;;;;;27.15;13.13;;;;;;;15.00;58.97;101715.91;4911344;28;124159;-82
2024/03/22 06:19:03;;;;;;;29.52;13.32;;;;;;;14.99;59.11;101720.38;4910495;28;124726;-83
2024/03/22 06:21:29;;;;;;;27.23;12.93;;;;;;;15.01;59.30;101722.09;4915414;28;120419;-82
2024/03/22 06:23:55;;;;;;;26.27;12.38;;;;;;;15.03;59.10;101714.88;4919184;28;119720;-86
2024/03/22 06:26:22;;;;;;;28.75;12.88;;;;;;;15.04;59.01;101711.28;4932769;28;126151;-82
2024/03/22 06:28:48;;;;;;;28.08;12.27;;;;;;;15.04;58.87;101705.94;4903878;28;125342;-84
2024/03/22 06:31:14;;;;;;;29.55;13.20;;;;;;;15.06;59.20;101706.72;4928432;28;118969;-82
2024/03/22 06:33:41;;;;;;;28.60;12.02;;;;;;;15.05;58.99;101712.97;4913402;28;119259;-83
2024/03/22 06:36:08;;;;;;;27.85;12.90;;;;;;;15.06;58.75;101715.56;4926296;28;123822;-83
2024/03/22 06:38:34;;;;;;;26.55;12.05;;;;;;;15.06;58.86;101714.72;4940314;28;123628;-80
2024/03/22 06:41:00;;;;;;;20.83;11.05;;;;;;;15.06;58.78;101709.38;4918414;28;119257;-82
2024/03/22 06:43:27;;;;;;;24.45;11.65;;;;;;;15.07;58.93;101711.09;4909079;28;119024;-80
2024/03/22 06:45:53;;;;;;;23.40;11.38;;;;;;;15.08;58.88;101707.50;4927233;28;123645;-81
2024/03/22 06:48:19;;;;;;;23.23;11.63;;;;;;;15.09;58.64;101703.91;4922181;28;124793;-81
2024/03/22 06:50:45;;;;;;;21.52;11.32;;;;;;;15.10;58.82;101705.63;4908090;28;119929;-81
2024/03/22 06:53:12;;;;;;;26.00;12.07;;;;;;;15.10;58.70;101694.94;4891347;28;120837;-80
2024/03/22 06:55:38;;;;;;;23.92;11.43;;;;;;;15.11;58.56;101696.69;4889847;28;123147;-80
2024/03/22 06:58:04;;;;;;;24.48;11.85;;;;;;;15.11;58.59;101694.03;4923255;28;126469;-80
2024/03/22 07:00:33;;;;;;;25.17;11.23;;;;;;;15.10;58.68;101689.59;4926850;28;120966;-80
2024/03/22 07:03:05;;;;;;;27.13;12.05;;;;;;;15.11;58.71;101696.69;4918780;28;118684;-79
2024/03/22 07:05:31;;;;;;;22.27;10.95;;;;;;;15.11;58.71;101691.34;4911681;28;124688;-81
2024/03/22 07:07:57;;;;;;;24.08;11.75;;;;;;;15.12;58.49;101688.56;4910874;28;123963;-82
2024/03/22 07:10:27;;;;;;;27.08;11.88;;;;;;;15.12;58.56;101693.91;4910467;28;120704;-80
2024/03/22 07:12:56;;;;;;;26.02;11.57;;;;;;;15.14;58.28;101696.50;4919776;28;120103;-82
2024/03/22 07:15:23;;;;;;;23.02;10.63;;;;;;;15.15;58.45;101692.91;4925739;28;123761;-83
2024/03/22 07:17:50;;;;;;;23.30;10.90;;;;;;;15.15;58.51;101695.59;4889684;28;124832;-81
2024/03/22 07:20:18;;;;;;;21.35;10.93;;;;;;;15.15;58.37;101703.59;4895677;28;120539;-82
2024/03/22 07:22:44;;;;;;;22.15;10.77;;;;;;;15.16;58.35;101699.97;4923026;28;118278;-82
2024/03/22 07:25:12;;;;;;;21.60;10.70;;;;;;;15.16;58.33;101695.50;4907855;28;123721;-82
2024/03/22 07:27:38;;;;;;;23.48;11.15;;;;;;;15.17;58.35;101696.38;4925779;28;122456;-83
2024/03/22 07:30:05;;;;;;;24.15;11.13;;;;;;;15.21;58.34;101697.06;4911530;28;120220;-83
2024/03/22 07:32:31;;;;;;;22.33;11.63;;;;;;;15.24;58.35;101700.47;4924275;28;119956;-82
2024/03/22 07:34:58;;;;;;;26.48;11.90;;;;;;;15.29;58.34;101697.53;4921468;28;123767;-82
2024/03/22 07:37:24;;;;;;;22.25;10.63;;;;;;;15.36;58.30;101697.16;4909272;28;125108;-81
2024/03/22 07:39:51;;;;;;;23.70;10.95;;;;;;;15.44;58.56;101691.41;4914769;28;122409;-83
2024/03/22 07:42:17;;;;;;;21.55;10.30;;;;;;;15.51;58.23;101694.63;4909517;28;119556;-83
2024/03/22 07:44:43;;;;;;;18.85;10.10;;;;;;;15.55;58.34;101690.84;4910798;28;123672;-82
2024/03/22 07:47:10;;;;;;;21.35;10.90;;;;;;;15.57;58.07;101688.97;4904561;28;124786;-82
2024/03/22 07:49:37;;;;;;;23.35;11.10;;;;;;;15.60;58.02;101694.16;4886798;28;119826;-80
2024/03/22 07:52:04;;;;;;;21.13;10.43;;;;;;;15.61;58.08;101695.88;4893488;28;120635;-84
2024/03/22 07:54:31;;;;;;;19.75;10.75;;;;;;;15.65;58.09;101697.47;4906089;28;122441;-80
2024/03/22 07:56:57;;;;;;;20.38;10.88;;;;;;;15.71;57.98;101694.44;4905279;28;124529;-84
2024/03/22 07:59:24;;;;;;;19.42;10.65;;;;;;;15.76;57.87;101705.78;4921059;28;121130;-84
2024/03/22 08:01:51;;;;;;;22.27;10.55;;;;;;;15.81;57.83;101702.00;4907600;28;120697;-84
2024/03/22 08:04:17;;;;;;;23.83;11.55;;;;;;;15.82;57.68;101698.38;4911458;28;124028;-84
2024/03/22 08:06:43;;;;;;;18.90;10.45;;;;;;;15.83;57.68;101700.97;4892199;28;124826;-83
2024/03/22 08:09:10;;;;;;;22.45;11.73;;;;;;;15.85;57.52;101693.75;4895307;28;120355;-83
2024/03/22 08:11:37;;;;;;;20.95;10.48;;;;;;;15.88;57.50;101692.69;4893737;28;120236;-82
2024/03/22 08:14:04;;;;;;;21.30;11.07;;;;;;;15.90;57.50;101688.16;4910926;28;124961;-82
2024/03/22 08:16:30;;;;;;;22.30;11.23;;;;;;;15.90;57.45;101690.84;4910163;28;125716;-82
2024/03/22 08:18:57;;;;;;;21.70;10.85;;;;;;;15.90;57.12;101696.19;4907347;28;120034;-83
2024/03/22 08:21:24;;;;;;;20.10;11.15;;;;;;;15.89;57.25;101699.78;4911762;28;119542;-82
2024/03/22 08:23:51;;;;;;;22.65;11.45;;;;;;;15.87;57.31;101697.19;4886097;28;126319;-84
2024/03/22 08:26:18;;;;;;;21.48;10.55;;;;;;;15.87;57.29;101696.34;4921647;28;123596;-84
2024/03/22 08:28:46;;;;;;;21.17;11.50;;;;;;;15.89;57.09;101699.78;4890523;28;120176;-84
2024/03/22 08:31:13;;;;;;;24.23;12.05;;;;;;;15.91;57.24;101703.22;4896277;28;120065;-84
2024/03/22 08:33:39;;;;;;;22.30;11.95;;;;;;;15.92;57.16;101699.63;4916908;28;124986;-84
2024/03/22 08:36:06;;;;;;;25.63;11.85;;;;;;;15.92;57.13;101695.13;4912905;28;122091;-84
2024/03/22 08:38:40;;;;;;;22.30;12.60;;;;;;;15.92;57.19;101688.94;5000702;28;96547;-64
2024/03/22 08:41:06;;;;;;;23.70;11.32;;;;;;;15.92;57.16;101694.28;4972710;28;109265;-64
2024/03/22 08:43:33;;;;;;;20.63;11.45;;;;;;;15.93;57.05;101687.97;4979395;28;126542;-64
2024/03/22 08:45:59;;;;;;;24.75;12.57;;;;;;;15.93;56.92;101688.84;4974644;28;124041;-64
2024/03/22 08:48:25;;;;;;;24.45;12.18;;;;;;;15.93;57.06;101686.16;4980066;28;107884;-64
2024/03/22 08:50:52;;;;;;;21.83;11.68;;;;;;;15.94;56.91;101676.38;4967029;28;110628;-64
2024/03/22 08:53:18;;;;;;;22.52;11.70;;;;;;;15.93;56.85;101680.81;4969849;28;124047;-64
2024/03/22 08:55:48;;;;;;;25.98;12.75;;;;;;;15.94;56.94;101668.34;4962659;28;124328;-64
2024/03/22 08:58:15;;;;;;;21.88;12.15;;;;;;;15.96;56.90;101674.47;4966102;28;106484;-64
2024/03/22 09:00:42;;;;;;;22.45;12.70;;;;;;;15.99;57.01;101674.28;4970803;28;109414;-64
2024/03/22 09:03:09;;;;;;;24.00;12.70;;;;;;;15.98;56.90;101672.56;4962425;28;123551;-64
2024/03/22 09:05:36;;;;;;;23.83;12.32;;;;;;;15.99;57.04;101674.28;4969622;28;125443;-64
2024/03/22 09:08:03;;;;;;;22.77;13.13;;;;;;;16.01;56.99;101671.53;4973344;28;107745;-65
2024/03/22 09:10:30;;;;;;;24.00;13.07;;;;;;;16.01;56.83;101671.53;4977139;28;110139;-64
2024/03/22 09:12:56;;;;;;;24.15;12.68;;;;;;;16.03;56.76;101669.63;4967101;28;123774;-64
2024/03/22 09:15:24;;;;;;;23.52;12.77;;;;;;;16.02;56.77;101676.78;4969276;28;124727;-64
2024/03/22 09:17:52;;;;;;;23.98;12.75;;;;;;;15.99;56.73;101674.28;4977961;28;107687;-64
2024/03/22 09:20:18;;;;;;;24.52;13.05;;;;;;;15.98;56.79;101677.91;4973827;28;110245;-64
2024/03/22 09:22:45;;;;;;;26.08;12.75;;;;;;;15.98;56.74;101667.22;4955399;28;123722;-64
2024/03/22 09:25:11;;;;;;;23.67;12.77;;;;;;;15.98;56.59;101667.22;4973290;28;124186;-65
2024/03/22 09:27:37;;;;;;;22.88;12.00;;;;;;;15.98;56.51;101667.22;4973095;28;107467;-64
2024/03/22 09:30:05;;;;;;;23.65;12.77;;;;;;;15.96;56.67;101669.13;4971150;28;110133;-64
2024/03/22 09:32:32;;;;;;;21.75;12.40;;;;;;;15.97;56.59;101665.50;4967576;28;124090;-65
2024/03/22 09:34:58;;;;;;;21.38;11.82;;;;;;;15.98;56.47;101656.53;4975434;28;123882;-64
2024/03/22 09:37:24;;;;;;;23.70;12.88;;;;;;;15.99;56.53;101658.25;4965500;28;107644;-64
2024/03/22 09:39:51;;;;;;;24.52;12.85;;;;;;;16.01;56.56;101664.41;4968435;28;109701;-65
2024/03/22 09:42:18;;;;;;;22.67;12.75;;;;;;;16.03;56.52;101658.94;4966135;28;124053;-64
2024/03/22 09:44:48;;;;;;;24.67;13.10;;;;;;;16.01;56.37;101656.38;4971356;28;123698;-64
2024/03/22 09:47:15;;;;;;;22.85;12.02;;;;;;;16.01;56.38;101655.50;4977714;28;107538;-65
2024/03/22 09:49:52;;;;;;;23.02;12.60;;;;;;;16.00;56.49;101654.66;4961919;28;110089;-65
2024/03/22 09:52:20;;;;;;;22.30;12.73;;;;;;;16.02;56.43;101647.41;4945795;28;124435;-64
2024/03/22 09:54:47;;;;;;;23.40;12.75;;;;;;;16.04;56.46;101639.31;4961411;28;124177;-64
2024/03/22 09:57:18;;;;;;;24.52;13.27;;;;;;;16.06;56.32;101643.59;4959017;28;107344;-64
2024/03/22 09:59:47;;;;;;;24.52;12.93;;;;;;;16.06;56.21;101642.75;4937056;28;108942;-62
2024/03/22 10:02:18;;;;;;;24.67;12.68;;;;;;;16.04;56.06;101640.16;4963573;28;124188;-64
2024/03/22 10:04:44;;;;;;;23.27;12.75;;;;;;;16.04;56.11;101640.16;4966578;28;124416;-64
2024/03/22 10:07:10;;;;;;;23.05;13.05;;;;;;;16.05;56.10;101636.56;4963800;28;108298;-64
2024/03/22 10:09:37;;;;;;;24.10;12.40;;;;;;;16.04;56.03;101645.50;4962108;28;109970;-64
2024/03/22 10:12:04;;;;;;;24.45;12.45;;;;;;;16.04;56.13;101633.97;4951028;28;124069;-64
2024/03/22 10:14:32;;;;;;;20.20;12.35;;;;;;;16.04;55.99;101634.81;4954396;28;124474;-66
2024/03/22 10:16:58;;;;;;;23.23;12.27;;;;;;;16.04;55.96;101634.81;4966783;28;107283;-64
2024/03/22 10:19:25;;;;;;;19.05;11.68;;;;;;;16.03;55.93;101633.09;4960875;28;109898;-64
2024/03/22 10:22:01;;;;;;;22.33;12.10;;;;;;;16.01;55.67;101628.78;4956144;28;124122;-64
2024/03/22 10:24:28;;;;;;;19.45;11.50;;;;;;;15.99;56.00;101626.19;4959349;28;124253;-64
2024/03/22 10:26:55;;;;;;;22.10;12.13;;;;;;;16.00;56.08;101627.94;4954656;28;107762;-64
2024/03/22 10:29:22;;;;;;;20.63;11.57;;;;;;;16.01;55.96;101632.34;4950284;28;109162;-64
2024/03/22 10:31:51;;;;;;;21.23;11.07;;;;;;;16.02;55.97;101642.06;4954282;28;124404;-64
2024/03/22 10:34:20;;;;;;;18.15;10.80;;;;;;;16.03;55.78;101638.47;4925468;28;123702;-64
2024/03/22 10:36:49;;;;;;;25.77;11.95;;;;;;;16.02;55.86;101631.38;4965497;28;107803;-64
2024/03/22 10:39:18;;;;;;;17.55;11.45;;;;;;;16.03;55.83;101627.75;4943501;28;110030;-64
2024/03/22 10:41:46;;;;;;;20.52;11.57;;;;;;;16.02;55.80;101636.72;4962930;28;123285;-64
2024/03/22 10:44:12;;;;;;;23.50;12.73;;;;;;;16.01;55.88;101637.69;4953591;28;124160;-64
2024/03/22 10:46:48;;;;;;;22.33;12.50;;;;;;;16.00;56.01;101638.63;4957146;28;107768;-64
2024/03/22 10:49:19;;;;;;;22.30;11.70;;;;;;;16.02;56.05;101630.53;4940375;28;108996;-64
2024/03/22 10:51:49;;;;;;;21.15;11.95;;;;;;;16.03;55.72;101627.75;4973465;28;124346;-64
2024/03/22 10:54:20;;;;;;;19.25;11.32;;;;;;;16.01;55.73;101629.66;4956781;28;124419;-63
2024/03/22 10:56:49;;;;;;;22.13;12.25;;;;;;;16.01;55.71;101618.97;4957059;28;107862;-64
2024/03/22 10:59:19;;;;;;;19.17;11.68;;;;;;;16.00;55.74;101619.91;4957937;28;110791;-64
2024/03/22 11:01:46;;;;;;;20.17;11.82;;;;;;;16.00;55.72;101622.59;4963685;28;123998;-64